Time;durP1;ratioP1;P1;durP2;ratioP2;P2;SDS_P1;SDS_P2;PMS_P1;PMS_P2;Temp;Humidity;BMP_temperature;BMP_pressure;BME280_temperature;BME280_humidity;BME280_pressure;Samples;Min_cycle;Max_cycle;Signal;HPM_P1;HPM_P2
2023/09/06 00:00:31;;;;;;;;;;;17.20;99.90;;;;;;4937884;29;19934;-73
2023/09/06 00:02:57;;;;;;;;;;;17.20;99.90;;;;;;4932902;28;20018;-73
2023/09/06 00:05:23;;;;;;;;;;;17.10;99.90;;;;;;4934368;28;19927;-73
2023/09/06 00:07:49;;;;;;;;;;;17.10;99.90;;;;;;4938222;28;19953;-72
2023/09/06 00:10:15;;;;;;;;;;;17.10;99.90;;;;;;4932596;28;20060;-73
2023/09/06 00:12:41;;;;;;;;;;;17.00;99.90;;;;;;4936254;29;19931;-73
2023/09/06 00:15:08;;;;;;;;;;;17.00;99.90;;;;;;4935207;29;19934;-72
2023/09/06 00:17:37;;;;;;;;;;;17.10;99.90;;;;;;4938824;28;19927;-73
2023/09/06 00:20:16;;;;;;;;;;;17.00;99.90;;;;;;4934795;29;19966;-73
2023/09/06 00:22:45;;;;;;;;;;;17.00;99.90;;;;;;4932222;28;19927;-73
2023/09/06 00:25:10;;;;;;;;;;;16.90;99.90;;;;;;4935986;29;19935;-73
2023/09/06 00:27:36;;;;;;;;;;;16.90;99.90;;;;;;4932766;28;19938;-73
2023/09/06 00:30:02;;;;;;;;;;;16.90;99.90;;;;;;4927276;28;19998;-73
2023/09/06 00:32:27;;;;;;;;;;;16.80;99.90;;;;;;4935560;29;19963;-73
2023/09/06 00:34:53;;;;;;;;;;;16.80;99.90;;;;;;4935058;28;19927;-73
2023/09/06 00:37:18;;;;;;;;;;;16.90;99.90;;;;;;4935575;29;19974;-73
2023/09/06 00:39:45;;;;;;;;;;;16.80;99.90;;;;;;4934147;29;19956;-73
2023/09/06 00:42:11;;;;;;;;;;;16.80;99.90;;;;;;4935462;29;20496;-73
2023/09/06 00:44:36;;;;;;;;;;;16.80;99.90;;;;;;4936897;29;19965;-73
2023/09/06 00:47:02;;;;;;;;;;;16.80;99.90;;;;;;4936865;29;20025;-73
2023/09/06 00:49:28;;;;;;;;;;;16.80;99.90;;;;;;4933525;29;19931;-73
2023/09/06 00:51:53;;;;;;;;;;;16.70;99.90;;;;;;4934241;28;19927;-73
2023/09/06 00:54:19;;;;;;;;;;;16.80;99.90;;;;;;4935515;28;19927;-73
2023/09/06 00:56:44;;;;;;;;;;;16.70;99.90;;;;;;4932104;28;19926;-73
2023/09/06 00:59:12;;;;;;;;;;;16.80;99.90;;;;;;4918595;29;19934;-73
2023/09/06 01:01:38;;;;;;;;;;;16.80;99.90;;;;;;4934717;29;19966;-73
2023/09/06 01:04:03;;;;;;;;;;;16.70;99.90;;;;;;4937209;29;19934;-73
2023/09/06 01:06:30;;;;;;;;;;;16.70;99.90;;;;;;4934824;28;19942;-73
2023/09/06 01:08:57;;;;;;;;;;;16.70;99.90;;;;;;4933480;29;20009;-73
2023/09/06 01:11:24;;;;;;;;;;;16.70;99.90;;;;;;4937628;28;19934;-72
2023/09/06 01:13:51;;;;;;;;;;;16.80;99.90;;;;;;4928983;29;19926;-73
2023/09/06 01:16:22;;;;;;;;;;;16.80;99.90;;;;;;4936644;28;19956;-73
2023/09/06 01:18:48;;;;;;;;;;;16.80;99.90;;;;;;4932152;28;19967;-73
2023/09/06 01:21:16;;;;;;;;;;;16.90;99.90;;;;;;4935442;28;19927;-73
2023/09/06 01:23:42;;;;;;;;;;;16.80;99.90;;;;;;4932947;28;19931;-72
2023/09/06 01:26:08;;;;;;;;;;;16.90;99.90;;;;;;4933203;29;19997;-73
2023/09/06 01:28:34;;;;;;;;;;;16.80;99.90;;;;;;4935286;29;19927;-72
2023/09/06 01:31:00;;;;;;;;;;;16.80;99.90;;;;;;4933903;29;20189;-72
2023/09/06 01:33:27;;;;;;;;;;;16.90;99.90;;;;;;4922822;28;19931;-73
2023/09/06 01:35:53;;;;;;;;;;;16.80;99.90;;;;;;4932570;28;19949;-73
2023/09/06 01:38:18;;;;;;;;;;;16.90;99.90;;;;;;4936311;28;20270;-73
2023/09/06 01:40:44;;;;;;;;;;;16.80;99.90;;;;;;4931655;28;19931;-73
2023/09/06 01:43:10;;;;;;;;;;;16.80;99.90;;;;;;4932812;28;19941;-73
2023/09/06 01:45:43;;;;;;;;;;;16.80;99.90;;;;;;4933266;28;19930;-73
2023/09/06 01:48:09;;;;;;;;;;;16.80;99.90;;;;;;4934670;29;19927;-73
2023/09/06 01:50:34;;;;;;;;;;;16.70;99.90;;;;;;4934460;29;19971;-73
2023/09/06 01:53:00;;;;;;;;;;;16.70;99.90;;;;;;4905610;28;19978;-73
2023/09/06 01:55:26;;;;;;;;;;;16.70;99.90;;;;;;4933808;29;19927;-73
2023/09/06 01:57:51;;;;;;;;;;;16.60;99.90;;;;;;4934437;28;19926;-74
2023/09/06 02:00:31;;;;;;;;;;;16.50;99.90;;;;;;4931867;29;19935;-73
2023/09/06 02:02:57;;;;;;;;;;;16.50;99.90;;;;;;4938487;28;19981;-73
2023/09/06 02:05:23;;;;;;;;;;;16.40;99.90;;;;;;4933950;29;19934;-73
2023/09/06 02:07:49;;;;;;;;;;;16.40;99.90;;;;;;4954853;28;19961;-73
2023/09/06 02:10:15;;;;;;;;;;;16.40;99.90;;;;;;4935140;28;19934;-73
2023/09/06 02:12:40;;;;;;;;;;;16.40;99.90;;;;;;4938903;29;20038;-73
2023/09/06 02:15:14;;;;;;;;;;;16.40;99.90;;;;;;4937860;29;19994;-73
2023/09/06 02:17:44;;;;;;;;;;;16.40;99.90;;;;;;4934356;29;19934;-73
2023/09/06 02:20:17;;;;;;;;;;;16.40;99.90;;;;;;4934017;28;19953;-73
2023/09/06 02:22:55;;;;;;;;;;;16.30;99.90;;;;;;4916980;28;20033;-73
2023/09/06 02:25:22;;;;;;;;;;;16.30;99.90;;;;;;4935821;28;19953;-73
2023/09/06 02:27:48;;;;;;;;;;;16.30;99.90;;;;;;4934293;29;19962;-73
2023/09/06 02:30:13;;;;;;;;;;;16.30;99.90;;;;;;4936461;29;20209;-73
2023/09/06 02:32:40;;;;;;;;;;;16.30;99.90;;;;;;4933595;29;19942;-73
2023/09/06 02:35:06;;;;;;;;;;;16.20;99.90;;;;;;4919248;28;19927;-73
2023/09/06 02:37:33;;;;;;;;;;;16.20;99.90;;;;;;4936999;28;19931;-74
2023/09/06 02:39:58;;;;;;;;;;;16.20;99.90;;;;;;4932311;28;19934;-73
2023/09/06 02:42:24;;;;;;;;;;;16.20;99.90;;;;;;4933953;29;19931;-73
2023/09/06 02:44:50;;;;;;;;;;;16.20;99.90;;;;;;4936430;28;19938;-73
2023/09/06 02:47:17;;;;;;;;;;;16.20;99.90;;;;;;4934913;29;19927;-73
2023/09/06 02:49:43;;;;;;;;;;;16.20;99.90;;;;;;4935823;29;20305;-71
2023/09/06 02:52:20;;;;;;;;;;;16.10;99.90;;;;;;4933162;29;19958;-73
2023/09/06 02:54:49;;;;;;;;;;;16.10;99.90;;;;;;4937634;28;20006;-73
2023/09/06 02:57:17;;;;;;;;;;;16.20;99.90;;;;;;4933739;28;19957;-73
2023/09/06 02:59:42;;;;;;;;;;;16.20;99.90;;;;;;4939194;28;19931;-73
2023/09/06 03:02:08;;;;;;;;;;;16.20;99.90;;;;;;4916488;28;19927;-72
2023/09/06 03:04:37;;;;;;;;;;;16.10;99.90;;;;;;4933435;29;19934;-73
2023/09/06 03:07:09;;;;;;;;;;;16.10;99.90;;;;;;4936371;28;19986;-73
2023/09/06 03:09:35;;;;;;;;;;;16.00;99.90;;;;;;4934597;29;19942;-73
2023/09/06 03:12:11;;;;;;;;;;;16.00;99.90;;;;;;4931686;28;19927;-73
2023/09/06 03:14:44;;;;;;;;;;;16.00;99.90;;;;;;4933289;29;19933;-73
2023/09/06 03:17:10;;;;;;;;;;;15.90;99.90;;;;;;4934655;28;20402;-73
2023/09/06 03:19:41;;;;;;;;;;;15.90;99.90;;;;;;4934031;28;19934;-73
2023/09/06 03:22:09;;;;;;;;;;;15.90;99.90;;;;;;4934730;29;20021;-73
2023/09/06 03:24:36;;;;;;;;;;;15.90;99.90;;;;;;4935970;28;19938;-73
2023/09/06 03:27:07;;;;;;;;;;;15.90;99.90;;;;;;4935171;28;20100;-73
2023/09/06 03:29:38;;;;;;;;;;;15.90;99.90;;;;;;4936279;29;19927;-73
2023/09/06 03:32:08;;;;;;;;;;;15.90;99.90;;;;;;4933120;28;20116;-73
2023/09/06 03:34:34;;;;;;;;;;;15.80;99.90;;;;;;5018971;28;19938;-73
2023/09/06 03:37:00;;;;;;;;;;;15.80;99.90;;;;;;4934344;28;19926;-73
2023/09/06 03:39:29;;;;;;;;;;;15.70;99.90;;;;;;4935820;28;19941;-73
2023/09/06 03:42:00;;;;;;;;;;;15.70;99.90;;;;;;4933965;29;19941;-73
2023/09/06 03:44:27;;;;;;;;;;;15.70;99.90;;;;;;4933237;28;19977;-73
2023/09/06 03:46:56;;;;;;;;;;;15.70;99.90;;;;;;4937832;28;19945;-73
2023/09/06 03:49:23;;;;;;;;;;;15.70;99.90;;;;;;4934282;29;20021;-73
2023/09/06 03:51:49;;;;;;;;;;;15.70;99.90;;;;;;4936535;28;19931;-73
2023/09/06 03:54:17;;;;;;;;;;;15.70;99.90;;;;;;4933905;29;19931;-73
2023/09/06 03:56:43;;;;;;;;;;;15.70;99.90;;;;;;4934215;29;19950;-73
2023/09/06 03:59:09;;;;;;;;;;;15.70;99.90;;;;;;4935173;28;19981;-73
2023/09/06 04:01:36;;;;;;;;;;;15.60;99.90;;;;;;4977920;28;19926;-73
2023/09/06 04:04:01;;;;;;;;;;;15.60;99.90;;;;;;4940706;29;19965;-73
2023/09/06 04:06:28;;;;;;;;;;;15.60;99.90;;;;;;4940557;29;19973;-73
2023/09/06 04:08:54;;;;;;;;;;;15.50;99.90;;;;;;4941306;28;19927;-73
2023/09/06 04:11:20;;;;;;;;;;;15.50;99.90;;;;;;4940513;28;20496;-73
2023/09/06 04:13:46;;;;;;;;;;;15.60;99.90;;;;;;4953519;29;19974;-73
2023/09/06 04:16:11;;;;;;;;;;;15.60;99.90;;;;;;4933508;29;20374;-73
2023/09/06 04:18:37;;;;;;;;;;;15.50;99.90;;;;;;4940289;28;19937;-74
2023/09/06 04:21:08;;;;;;;;;;;15.50;99.90;;;;;;4938735;29;19931;-73
2023/09/06 04:23:36;;;;;;;;;;;15.50;99.90;;;;;;4918459;28;19934;-73
2023/09/06 04:26:05;;;;;;;;;;;15.50;99.90;;;;;;4932097;29;19930;-73
2023/09/06 04:28:30;;;;;;;;;;;15.50;99.90;;;;;;4936793;28;19931;-74
2023/09/06 04:30:57;;;;;;;;;;;15.50;99.90;;;;;;4914228;29;19954;-73
2023/09/06 04:33:23;;;;;;;;;;;15.40;99.90;;;;;;4935736;28;19928;-74
2023/09/06 04:35:49;;;;;;;;;;;15.50;99.90;;;;;;4933675;28;19957;-73
2023/09/06 04:38:16;;;;;;;;;;;15.50;99.90;;;;;;4938823;28;19926;-73
2023/09/06 04:40:46;;;;;;;;;;;15.50;99.90;;;;;;4932784;28;19932;-73
2023/09/06 04:43:12;;;;;;;;;;;15.50;99.90;;;;;;4933970;28;20293;-74
2023/09/06 04:45:38;;;;;;;;;;;15.40;99.90;;;;;;4912878;28;19984;-73
2023/09/06 04:48:05;;;;;;;;;;;15.40;99.90;;;;;;4931145;29;19931;-73
2023/09/06 04:50:30;;;;;;;;;;;15.40;99.90;;;;;;4931939;28;19943;-73
2023/09/06 04:52:56;;;;;;;;;;;15.40;99.90;;;;;;4931642;29;19931;-73
2023/09/06 04:55:23;;;;;;;;;;;15.40;99.90;;;;;;4967826;28;19938;-74
2023/09/06 04:57:49;;;;;;;;;;;15.40;99.90;;;;;;4932297;29;19938;-73
2023/09/06 05:00:23;;;;;;;;;;;15.40;99.90;;;;;;4937984;28;20361;-73
2023/09/06 05:02:49;;;;;;;;;;;15.40;99.90;;;;;;4936624;29;19931;-73
2023/09/06 05:05:15;;;;;;;;;;;15.40;99.90;;;;;;4921652;28;19926;-73
2023/09/06 05:07:41;;;;;;;;;;;15.40;99.90;;;;;;4928960;29;19941;-74
2023/09/06 05:10:09;;;;;;;;;;;15.40;99.90;;;;;;4934117;29;19926;-74
2023/09/06 05:12:35;;;;;;;;;;;15.40;99.90;;;;;;4935401;29;19931;-73
2023/09/06 05:15:01;;;;;;;;;;;15.30;99.90;;;;;;4942567;28;19939;-73
2023/09/06 05:17:27;;;;;;;;;;;15.40;99.90;;;;;;4940696;28;19962;-73
2023/09/06 05:19:52;;;;;;;;;;;15.30;99.90;;;;;;4939781;29;20017;-73
2023/09/06 05:22:18;;;;;;;;;;;15.40;99.90;;;;;;4964643;28;20363;-73
2023/09/06 05:24:45;;;;;;;;;;;15.40;99.90;;;;;;4937196;29;19954;-73
2023/09/06 05:27:11;;;;;;;;;;;15.40;99.90;;;;;;4951583;29;19938;-73
2023/09/06 05:29:36;;;;;;;;;;;15.40;99.90;;;;;;4937833;28;19931;-73
2023/09/06 05:32:03;;;;;;;;;;;15.40;99.90;;;;;;4935414;29;19931;-73
2023/09/06 05:34:29;;;;;;;;;;;15.50;99.90;;;;;;4934969;29;19966;-73
2023/09/06 05:36:55;;;;;;;;;;;15.50;99.90;;;;;;4933634;28;19927;-74
2023/09/06 05:39:21;;;;;;;;;;;15.50;99.90;;;;;;4933015;29;19981;-76
2023/09/06 05:41:47;;;;;;;;;;;15.60;99.90;;;;;;4922097;28;19927;-74
2023/09/06 05:44:12;;;;;;;;;;;15.60;99.90;;;;;;4937384;28;19927;-74
2023/09/06 05:46:38;;;;;;;;;;;15.60;99.90;;;;;;5024992;28;19933;-73
2023/09/06 05:49:04;;;;;;;;;;;15.60;99.90;;;;;;4938873;28;19926;-73
2023/09/06 05:51:31;;;;;;;;;;;15.60;99.90;;;;;;4937735;28;19937;-74
2023/09/06 05:53:57;;;;;;;;;;;15.60;99.90;;;;;;4935436;28;19931;-73
2023/09/06 05:56:22;;;;;;;;;;;15.70;99.90;;;;;;4934762;28;20280;-74
2023/09/06 05:58:48;;;;;;;;;;;15.70;99.90;;;;;;4937443;29;19994;-73
2023/09/06 06:01:17;;;;;;;;;;;15.70;99.90;;;;;;4937267;29;19934;-74
2023/09/06 06:03:43;;;;;;;;;;;15.80;99.90;;;;;;4937928;29;20314;-74
2023/09/06 06:06:10;;;;;;;;;;;15.90;99.90;;;;;;4920734;28;19950;-74
2023/09/06 06:08:37;;;;;;;;;;;15.90;99.90;;;;;;4937500;28;19973;-73
2023/09/06 06:11:03;;;;;;;;;;;16.00;99.90;;;;;;4936383;28;19966;-73
2023/09/06 06:13:29;;;;;;;;;;;16.10;99.90;;;;;;4929200;28;20614;-74
2023/09/06 06:15:54;;;;;;;;;;;16.10;99.90;;;;;;4936888;29;19941;-73
2023/09/06 06:18:24;;;;;;;;;;;16.10;99.90;;;;;;4937200;29;19931;-74
2023/09/06 06:20:50;;;;;;;;;;;16.20;99.90;;;;;;4933701;29;19930;-74
2023/09/06 06:23:15;;;;;;;;;;;16.20;99.90;;;;;;4922901;28;20015;-74
2023/09/06 06:25:41;;;;;;;;;;;16.30;99.90;;;;;;4939949;29;19948;-74
2023/09/06 06:28:07;;;;;;;;;;;16.30;99.90;;;;;;4920926;29;19934;-74
2023/09/06 06:30:33;;;;;;;;;;;16.30;99.90;;;;;;4936735;28;19927;-74
2023/09/06 06:33:00;;;;;;;;;;;16.50;99.90;;;;;;4920250;28;20420;-73
2023/09/06 06:35:26;;;;;;;;;;;16.50;99.90;;;;;;4935087;29;19974;-74
2023/09/06 06:37:51;;;;;;;;;;;16.60;99.90;;;;;;4938430;29;19927;-74
2023/09/06 06:40:18;;;;;;;;;;;16.70;99.90;;;;;;4934325;29;19931;-74
2023/09/06 06:42:46;;;;;;;;;;;16.70;99.90;;;;;;4937723;29;19927;-74
2023/09/06 06:45:12;;;;;;;;;;;16.80;99.90;;;;;;4936392;28;19931;-74
2023/09/06 06:47:37;;;;;;;;;;;16.90;99.90;;;;;;4926411;28;19935;-74
2023/09/06 06:50:06;;;;;;;;;;;17.10;99.90;;;;;;4949647;28;19930;-74
2023/09/06 06:52:36;;;;;;;;;;;17.20;99.90;;;;;;4946517;28;19938;-74
2023/09/06 06:55:03;;;;;;;;;;;17.30;99.90;;;;;;4934007;29;19931;-74
2023/09/06 06:57:29;;;;;;;;;;;17.40;99.90;;;;;;4930971;29;19927;-74
2023/09/06 06:59:55;;;;;;;;;;;17.50;99.90;;;;;;4929326;28;19953;-73
2023/09/06 07:02:21;;;;;;;;;;;17.60;99.90;;;;;;4976314;28;19938;-74
2023/09/06 07:04:47;;;;;;;;;;;17.70;99.90;;;;;;4961594;28;19927;-74
2023/09/06 07:07:13;;;;;;;;;;;17.80;99.90;;;;;;4939035;29;20024;-74
2023/09/06 07:09:38;;;;;;;;;;;18.00;99.90;;;;;;4927946;28;20409;-74
2023/09/06 07:12:04;;;;;;;;;;;18.10;99.90;;;;;;4942171;28;19927;-74
2023/09/06 07:14:30;;;;;;;;;;;18.30;99.90;;;;;;4939987;29;19933;-74
2023/09/06 07:16:56;;;;;;;;;;;18.70;99.90;;;;;;4934204;28;19941;-74
2023/09/06 07:19:21;;;;;;;;;;;19.60;99.90;;;;;;4934005;28;19934;-74
2023/09/06 07:21:47;;;;;;;;;;;20.70;99.90;;;;;;4934715;29;20528;-74
2023/09/06 07:24:14;;;;;;;;;;;21.70;99.90;;;;;;5000964;28;20701;-74
2023/09/06 07:26:40;;;;;;;;;;;22.60;99.90;;;;;;4938133;29;19933;-74
2023/09/06 07:29:06;;;;;;;;;;;23.40;99.90;;;;;;4932866;28;20381;-74
2023/09/06 07:31:32;;;;;;;;;;;24.10;99.90;;;;;;4944010;29;19927;-74
2023/09/06 07:33:58;;;;;;;;;;;24.70;99.90;;;;;;4935546;29;19961;-74
2023/09/06 07:36:23;;;;;;;;;;;25.20;99.90;;;;;;4918902;28;20083;-74
2023/09/06 07:38:54;;;;;;;;;;;25.70;99.90;;;;;;4934207;29;19973;-74
2023/09/06 07:41:20;;;;;;;;;;;26.00;99.90;;;;;;4936980;29;19942;-74
2023/09/06 07:43:46;;;;;;;;;;;26.40;99.90;;;;;;4930534;29;19927;-75
2023/09/06 07:46:12;;;;;;;;;;;26.70;99.90;;;;;;4940003;28;19938;-74
2023/09/06 07:48:38;;;;;;;;;;;26.90;99.90;;;;;;4950927;28;19942;-75
2023/09/06 07:51:04;;;;;;;;;;;27.10;99.90;;;;;;4938979;29;19927;-74
2023/09/06 07:53:30;;;;;;;;;;;27.40;99.90;;;;;;4939198;28;19933;-74
2023/09/06 07:55:56;;;;;;;;;;;27.60;99.90;;;;;;4959225;28;20303;-74
2023/09/06 07:58:22;;;;;;;;;;;27.80;99.90;;;;;;4950284;28;19962;-74
2023/09/06 08:00:48;;;;;;;;;;;27.90;99.90;;;;;;4938662;28;19986;-74
2023/09/06 08:03:14;;;;;;;;;;;28.00;99.90;;;;;;4937047;29;20011;-74
2023/09/06 08:05:39;;;;;;;;;;;28.10;99.90;;;;;;4933399;29;20287;-75
2023/09/06 08:08:06;;;;;;;;;;;28.30;99.90;;;;;;4933528;29;19941;-74
2023/09/06 08:10:32;;;;;;;;;;;28.40;99.90;;;;;;4918054;28;19945;-74
2023/09/06 08:12:58;;;;;;;;;;;28.50;99.90;;;;;;4919678;28;19931;-74
2023/09/06 08:15:23;;;;;;;;;;;28.60;99.90;;;;;;4936306;28;19926;-73
2023/09/06 08:17:49;;;;;;;;;;;28.70;99.90;;;;;;4936282;28;19927;-73
2023/09/06 08:20:15;;;;;;;;;;;28.80;99.90;;;;;;4932008;29;19926;-74
2023/09/06 08:22:41;;;;;;;;;;;28.90;99.90;;;;;;4934317;29;20017;-73
2023/09/06 08:25:07;;;;;;;;;;;29.00;99.90;;;;;;4935995;28;19927;-74
2023/09/06 08:27:33;;;;;;;;;;;29.30;99.90;;;;;;4922037;29;19937;-74
2023/09/06 08:29:58;;;;;;;;;;;29.50;99.90;;;;;;4940085;28;19989;-74
2023/09/06 08:32:24;;;;;;;;;;;29.60;99.90;;;;;;4938744;29;19934;-74
2023/09/06 08:34:50;;;;;;;;;;;29.60;99.30;;;;;;4924989;29;19965;-74
2023/09/06 08:37:15;;;;;;;;;;;29.50;99.90;;;;;;4923521;29;19927;-74
2023/09/06 08:39:41;;;;;;;;;;;29.50;98.90;;;;;;4936626;29;19965;-74
2023/09/06 08:42:07;;;;;;;;;;;29.70;99.90;;;;;;4941051;28;19946;-74
2023/09/06 08:44:32;;;;;;;;;;;29.80;98.20;;;;;;4969493;28;19927;-74
2023/09/06 08:47:01;;;;;;;;;;;29.90;99.90;;;;;;4940634;29;19952;-74
2023/09/06 08:49:27;;;;;;;;;;;29.90;99.90;;;;;;4937328;28;19973;-74
2023/09/06 08:51:54;;;;;;;;;;;29.90;99.90;;;;;;4937136;29;19927;-74
2023/09/06 08:54:20;;;;;;;;;;;29.90;98.00;;;;;;4939110;29;19927;-74
2023/09/06 08:56:45;;;;;;;;;;;29.90;95.80;;;;;;4937269;28;19973;-74
2023/09/06 08:59:12;;;;;;;;;;;30.00;96.70;;;;;;4940038;29;19984;-74
2023/09/06 09:01:37;;;;;;;;;;;30.20;97.80;;;;;;4937419;29;19927;-74
2023/09/06 09:04:03;;;;;;;;;;;30.30;97.50;;;;;;4940587;29;19934;-74
2023/09/06 09:06:29;;;;;;;;;;;30.20;95.20;;;;;;4938364;29;19926;-73
2023/09/06 09:08:55;;;;;;;;;;;30.20;96.70;;;;;;4922335;28;19927;-74
2023/09/06 09:11:20;;;;;;;;;;;30.30;96.30;;;;;;4940057;28;19953;-75
2023/09/06 09:13:46;;;;;;;;;;;30.50;94.70;;;;;;4937694;28;19980;-74
2023/09/06 09:16:13;;;;;;;;;;;30.60;94.30;;;;;;4937535;29;20381;-74
2023/09/06 09:18:40;;;;;;;;;;;30.80;96.70;;;;;;4935816;29;20282;-74
2023/09/06 09:21:09;;;;;;;;;;;30.70;94.90;;;;;;4940361;29;19938;-74
2023/09/06 09:23:46;;;;;;;;;;;30.70;95.60;;;;;;4939024;29;19937;-74
2023/09/06 09:26:12;;;;;;;;;;;30.80;96.30;;;;;;4938690;29;19927;-74
2023/09/06 09:28:40;;;;;;;;;;;30.80;94.90;;;;;;4939154;28;20612;-74
2023/09/06 09:31:09;;;;;;;;;;;30.90;95.20;;;;;;4937412;29;19934;-74
2023/09/06 09:33:35;;;;;;;;;;;30.90;94.70;;;;;;4940391;29;19927;-74
2023/09/06 09:36:01;;;;;;;;;;;30.90;93.60;;;;;;4969138;28;19953;-74
2023/09/06 09:38:27;;;;;;;;;;;30.90;92.90;;;;;;4937602;29;19927;-74
2023/09/06 09:41:06;;;;;;;;;;;31.00;93.40;;;;;;4937614;28;19960;-74
2023/09/06 09:43:31;;;;;;;;;;;31.10;92.40;;;;;;4924134;29;19931;-74
2023/09/06 09:45:57;;;;;;;;;;;31.10;92.00;;;;;;4939972;28;19930;-74
2023/09/06 09:48:26;;;;;;;;;;;31.30;91.40;;;;;;4919472;28;20013;-74
2023/09/06 09:50:53;;;;;;;;;;;31.50;93.80;;;;;;4940405;29;19927;-74
2023/09/06 09:53:23;;;;;;;;;;;31.50;90.70;;;;;;4938220;29;19994;-74
2023/09/06 09:55:49;;;;;;;;;;;31.60;93.50;;;;;;4939411;29;19972;-74
2023/09/06 09:58:15;;;;;;;;;;;31.70;91.10;;;;;;4920773;28;19946;-74
2023/09/06 10:00:41;;;;;;;;;;;31.70;91.60;;;;;;4938577;29;20421;-74
2023/09/06 10:03:08;;;;;;;;;;;31.80;90.40;;;;;;4954535;29;19926;-74
2023/09/06 10:05:35;;;;;;;;;;;32.00;90.80;;;;;;4937910;28;19931;-74
2023/09/06 10:08:01;;;;;;;;;;;32.00;91.60;;;;;;4922746;29;20440;-74
2023/09/06 10:10:27;;;;;;;;;;;32.00;90.10;;;;;;4938567;29;19927;-74
2023/09/06 10:12:53;;;;;;;;;;;31.80;90.20;;;;;;4953891;29;19994;-74
2023/09/06 10:15:20;;;;;;;;;;;31.60;89.00;;;;;;4937802;28;19962;-74
2023/09/06 10:17:47;;;;;;;;;;;31.40;89.80;;;;;;4921343;29;19991;-74
2023/09/06 10:20:14;;;;;;;;;;;31.20;88.30;;;;;;4936181;28;19930;-74
2023/09/06 10:22:43;;;;;;;;;;;30.90;88.80;;;;;;5019158;28;20039;-74
2023/09/06 10:25:10;;;;;;;;;;;30.60;88.70;;;;;;4939440;29;19934;-74
2023/09/06 10:27:49;;;;;;;;;;;30.40;91.00;;;;;;4936705;28;19926;-74
2023/09/06 10:30:17;;;;;;;;;;;30.20;91.00;;;;;;4940028;29;19962;-74
2023/09/06 10:32:43;;;;;;;;;;;30.00;89.70;;;;;;4942056;29;20029;-74
2023/09/06 10:35:19;;;;;;;;;;;29.80;90.90;;;;;;4941246;29;20389;-74
2023/09/06 10:38:02;;;;;;;;;;;29.80;90.60;;;;;;4957329;29;19927;-74
2023/09/06 10:40:47;;;;;;;;;;;29.80;91.50;;;;;;4938631;28;19927;-74
2023/09/06 10:43:12;;;;;;;;;;;29.70;91.20;;;;;;4941786;28;19942;-74
2023/09/06 10:45:38;;;;;;;;;;;29.60;92.50;;;;;;4940184;28;19927;-73
2023/09/06 10:48:10;;;;;;;;;;;29.60;89.70;;;;;;4936510;29;20411;-74
2023/09/06 10:50:36;;;;;;;;;;;29.60;91.20;;;;;;4934350;29;20013;-73
2023/09/06 10:53:02;;;;;;;;;;;29.70;91.80;;;;;;4922052;28;19927;-74
2023/09/06 10:55:30;;;;;;;;;;;29.70;91.50;;;;;;4940945;29;19950;-74
2023/09/06 10:57:58;;;;;;;;;;;29.80;90.30;;;;;;4971270;28;19927;-74
2023/09/06 11:00:26;;;;;;;;;;;29.90;87.40;;;;;;4940263;28;19927;-74
2023/09/06 11:03:04;;;;;;;;;;;29.90;88.40;;;;;;4923401;29;19927;-74
2023/09/06 11:05:31;;;;;;;;;;;30.00;90.60;;;;;;4940374;29;19949;-74
2023/09/06 11:07:56;;;;;;;;;;;30.10;90.50;;;;;;5024100;28;20426;-74
2023/09/06 11:10:25;;;;;;;;;;;30.30;90.30;;;;;;4942202;28;20017;-74
2023/09/06 11:12:53;;;;;;;;;;;30.40;86.10;;;;;;4938940;28;20132;-74
2023/09/06 11:15:19;;;;;;;;;;;30.40;88.90;;;;;;4939079;28;19977;-74
2023/09/06 11:17:45;;;;;;;;;;;30.40;84.00;;;;;;4922379;28;19931;-78
2023/09/06 11:20:14;;;;;;;;;;;30.50;88.10;;;;;;4932357;29;19931;-74
2023/09/06 11:22:56;;;;;;;;;;;30.50;87.70;;;;;;4937435;29;20218;-74
2023/09/06 11:25:23;;;;;;;;;;;30.60;85.80;;;;;;4938831;29;19933;-74
2023/09/06 11:27:49;;;;;;;;;;;30.70;85.20;;;;;;4937338;28;19946;-74
2023/09/06 11:30:18;;;;;;;;;;;30.60;86.20;;;;;;4941352;28;19958;-74
2023/09/06 11:32:44;;;;;;;;;;;30.70;88.00;;;;;;4922878;29;19927;-74
2023/09/06 11:35:10;;;;;;;;;;;30.80;85.40;;;;;;4963198;28;19931;-74
2023/09/06 11:37:44;;;;;;;;;;;30.80;87.70;;;;;;4938720;29;19927;-74
2023/09/06 11:40:14;;;;;;;;;;;30.80;84.50;;;;;;4940563;28;20394;-74
2023/09/06 11:42:40;;;;;;;;;;;30.70;86.10;;;;;;4938173;29;19927;-74
2023/09/06 11:45:06;;;;;;;;;;;30.70;88.40;;;;;;4939542;28;19927;-74
2023/09/06 11:47:32;;;;;;;;;;;30.70;83.80;;;;;;4951009;28;19927;-74
2023/09/06 11:50:02;;;;;;;;;;;30.80;87.50;;;;;;4936463;28;20029;-74
2023/09/06 11:52:30;;;;;;;;;;;30.90;84.00;;;;;;4929368;29;19927;-74
2023/09/06 11:54:56;;;;;;;;;;;30.80;83.80;;;;;;4940561;29;20439;-74
2023/09/06 11:57:26;;;;;;;;;;;30.80;84.10;;;;;;4945338;28;19948;-74
2023/09/06 11:59:57;;;;;;;;;;;30.80;83.20;;;;;;4953891;28;19964;-74
2023/09/06 12:02:31;;;;;;;;;;;30.80;83.30;;;;;;4939904;28;19980;-74
2023/09/06 12:05:00;;;;;;;;;;;30.80;83.50;;;;;;4938787;28;19927;-74
2023/09/06 12:07:26;;;;;;;;;;;30.80;85.30;;;;;;4938738;29;20030;-74
2023/09/06 12:09:54;;;;;;;;;;;30.90;87.00;;;;;;4937306;29;19931;-74
2023/09/06 12:12:20;;;;;;;;;;;30.90;85.70;;;;;;4937703;29;19927;-74
2023/09/06 12:14:46;;;;;;;;;;;30.90;83.60;;;;;;4933132;29;19933;-74
2023/09/06 12:17:12;;;;;;;;;;;30.90;87.10;;;;;;4917248;29;19931;-74
2023/09/06 12:19:37;;;;;;;;;;;30.90;84.40;;;;;;4936112;29;20022;-73
2023/09/06 12:22:05;;;;;;;;;;;30.90;82.40;;;;;;4940171;28;20313;-74
2023/09/06 12:24:33;;;;;;;;;;;30.90;83.40;;;;;;4936921;28;19927;-74
2023/09/06 12:27:00;;;;;;;;;;;30.90;84.00;;;;;;4921018;29;19931;-74
2023/09/06 12:29:26;;;;;;;;;;;31.00;82.50;;;;;;4941374;29;20328;-74
2023/09/06 12:31:52;;;;;;;;;;;31.10;83.10;;;;;;4937454;29;20017;-74
2023/09/06 12:34:17;;;;;;;;;;;31.20;79.70;;;;;;4939127;29;20227;-74
2023/09/06 12:36:43;;;;;;;;;;;31.30;80.40;;;;;;4954054;28;19957;-74
2023/09/06 12:39:08;;;;;;;;;;;31.20;80.30;;;;;;4939989;29;19927;-74
2023/09/06 12:41:34;;;;;;;;;;;31.20;80.10;;;;;;4940718;29;19930;-74
2023/09/06 12:44:00;;;;;;;;;;;31.10;79.30;;;;;;4936882;28;19973;-74
2023/09/06 12:46:25;;;;;;;;;;;31.10;80.10;;;;;;4939652;29;19934;-74
2023/09/06 12:48:51;;;;;;;;;;;31.00;80.60;;;;;;4943508;29;19981;-74
2023/09/06 12:51:16;;;;;;;;;;;31.00;80.10;;;;;;4938286;29;19927;-74
2023/09/06 12:53:42;;;;;;;;;;;30.90;81.70;;;;;;4938594;28;20329;-74
2023/09/06 12:56:09;;;;;;;;;;;30.90;79.80;;;;;;4939481;29;20029;-74
2023/09/06 12:58:35;;;;;;;;;;;30.80;81.10;;;;;;4963123;28;19927;-74
2023/09/06 13:01:02;;;;;;;;;;;30.80;80.80;;;;;;4938945;28;19930;-74
2023/09/06 13:03:28;;;;;;;;;;;30.80;81.50;;;;;;4940242;29;19927;-74
2023/09/06 13:05:55;;;;;;;;;;;30.70;79.70;;;;;;4925224;28;19934;-74
2023/09/06 13:08:21;;;;;;;;;;;30.80;80.20;;;;;;4938371;29;19973;-74
2023/09/06 13:10:46;;;;;;;;;;;31.00;80.70;;;;;;4925670;29;20729;-74
2023/09/06 13:13:12;;;;;;;;;;;31.20;81.40;;;;;;4931580;29;20342;-74
2023/09/06 13:15:38;;;;;;;;;;;31.20;80.00;;;;;;4936558;28;19926;-74
2023/09/06 13:18:04;;;;;;;;;;;31.20;79.50;;;;;;4937447;29;19927;-74
2023/09/06 13:20:29;;;;;;;;;;;31.10;80.00;;;;;;4932782;28;19939;-74
2023/09/06 13:22:57;;;;;;;;;;;31.20;82.30;;;;;;4935524;28;19931;-85
2023/09/06 13:25:22;;;;;;;;;;;31.20;82.50;;;;;;4905717;28;19927;-85
2023/09/06 13:27:48;;;;;;;;;;;31.20;80.30;;;;;;4922202;29;19986;-84
2023/09/06 13:30:14;;;;;;;;;;;31.10;81.00;;;;;;4929187;29;19927;-84
2023/09/06 13:32:39;;;;;;;;;;;31.10;80.60;;;;;;4911353;29;19934;-82
2023/09/06 13:35:05;;;;;;;;;;;31.20;79.80;;;;;;4921174;28;19926;-83
2023/09/06 13:37:32;;;;;;;;;;;31.20;80.30;;;;;;4920702;28;20013;-83
2023/09/06 13:39:57;;;;;;;;;;;31.10;80.10;;;;;;4921056;29;20308;-83
2023/09/06 13:42:23;;;;;;;;;;;31.00;80.60;;;;;;4953743;28;19937;-83
2023/09/06 13:44:49;;;;;;;;;;;30.90;81.00;;;;;;4905009;29;19981;-83
2023/09/06 13:47:16;;;;;;;;;;;30.90;80.40;;;;;;4935857;29;19927;-82
2023/09/06 13:49:44;;;;;;;;;;;30.90;79.80;;;;;;4920658;28;19935;-82
2023/09/06 13:52:10;;;;;;;;;;;30.90;80.10;;;;;;4952238;29;20436;-83
2023/09/06 13:54:36;;;;;;;;;;;30.80;78.60;;;;;;4938251;29;19931;-82
2023/09/06 13:57:03;;;;;;;;;;;30.90;77.10;;;;;;4901799;29;19939;-82
2023/09/06 13:59:29;;;;;;;;;;;30.90;73.10;;;;;;4996675;28;19973;-83
2023/09/06 14:01:54;;;;;;;;;;;30.80;77.40;;;;;;4921767;29;19927;-81
2023/09/06 14:04:20;;;;;;;;;;;30.70;77.40;;;;;;4925757;29;19931;-82
2023/09/06 14:06:45;;;;;;;;;;;30.60;80.20;;;;;;4909621;28;19927;-83
2023/09/06 14:09:11;;;;;;;;;;;30.70;76.10;;;;;;4924875;29;20332;-83
2023/09/06 14:11:37;;;;;;;;;;;30.60;78.20;;;;;;4947200;29;19927;-83
2023/09/06 14:14:04;;;;;;;;;;;30.70;79.30;;;;;;4939496;29;20364;-82